Time;durP1;ratioP1;P1;durP2;ratioP2;P2;SDS_P1;SDS_P2;PMS_P1;PMS_P2;Temp;Humidity;BMP_temperature;BMP_pressure;BME280_temperature;BME280_humidity;BME280_pressure;Samples;Min_cycle;Max_cycle;Signal;HPM_P1;HPM_P2
2023/09/11 00:01:20;;;;;;;1999.90;999.90;;;23.80;99.90;;;;;;5014087;28;20228;-75
2023/09/11 00:03:45;;;;;;;1999.90;999.90;;;23.80;99.90;;;;;;5013646;28;20247;-75
2023/09/11 00:06:11;;;;;;;1999.90;999.90;;;23.80;99.90;;;;;;5013969;28;20400;-75
2023/09/11 00:08:37;;;;;;;1999.90;999.90;;;23.80;99.90;;;;;;5013959;28;20239;-75
2023/09/11 00:11:03;;;;;;;1999.90;999.90;;;23.80;99.90;;;;;;5013893;28;20172;-75
2023/09/11 00:13:30;;;;;;;1999.90;999.90;;;23.80;99.90;;;;;;5013630;28;20200;-74
2023/09/11 00:15:55;;;;;;;1999.90;999.90;;;23.80;99.90;;;;;;5013781;28;20382;-76
2023/09/11 00:18:21;;;;;;;1999.90;999.90;;;23.80;99.90;;;;;;5013662;28;20891;-73
2023/09/11 00:20:46;;;;;;;1999.90;999.90;;;23.80;99.90;;;;;;5012761;28;20220;-75
2023/09/11 00:23:12;;;;;;;1999.90;999.90;;;23.70;99.90;;;;;;5013579;28;20676;-75
2023/09/11 00:25:38;;;;;;;1999.90;999.90;;;23.70;99.90;;;;;;5013559;28;20177;-76
2023/09/11 00:28:04;;;;;;;1999.90;999.90;;;23.70;99.90;;;;;;5013535;28;20161;-75
2023/09/11 00:30:29;;;;;;;1999.90;999.90;;;23.70;99.90;;;;;;5013427;28;20180;-74
2023/09/11 00:32:55;;;;;;;1999.90;999.90;;;23.60;99.90;;;;;;5013039;28;20437;-75
2023/09/11 00:35:21;;;;;;;1999.90;999.90;;;23.60;99.90;;;;;;5013479;28;20176;-75
2023/09/11 00:37:46;;;;;;;1999.90;999.90;;;23.60;99.90;;;;;;5013418;28;20416;-75
2023/09/11 00:40:12;;;;;;;1999.90;999.90;;;23.60;99.90;;;;;;5013300;28;20279;-74
2023/09/11 00:42:38;;;;;;;1999.90;999.90;;;23.60;99.90;;;;;;5013069;28;20537;-74
2023/09/11 00:45:04;;;;;;;1999.90;999.90;;;23.60;99.90;;;;;;5013301;28;20256;-72
2023/09/11 00:47:29;;;;;;;1999.90;999.90;;;23.60;99.90;;;;;;5013083;28;20173;-73
2023/09/11 00:49:57;;;;;;;1999.90;999.90;;;23.50;99.90;;;;;;5013200;28;20386;-74
2023/09/11 00:52:24;;;;;;;1999.90;999.90;;;23.40;99.90;;;;;;5012996;28;20256;-75
2023/09/11 00:54:51;;;;;;;1999.90;999.90;;;23.40;99.90;;;;;;5013049;28;20424;-75
2023/09/11 00:57:18;;;;;;;1999.90;999.90;;;23.30;99.90;;;;;;5013050;28;20475;-75
2023/09/11 00:59:45;;;;;;;1999.90;999.90;;;23.20;99.90;;;;;;5012961;28;20820;-75
2023/09/11 01:02:13;;;;;;;1999.90;999.90;;;23.20;99.90;;;;;;5012787;28;20395;-76
2023/09/11 01:04:40;;;;;;;1999.90;999.90;;;23.20;99.90;;;;;;5013069;28;20814;-75
2023/09/11 01:07:05;;;;;;;1999.90;999.90;;;23.10;99.90;;;;;;5013049;28;20465;-75
2023/09/11 01:09:33;;;;;;;1999.90;999.90;;;23.00;99.90;;;;;;5012853;28;20946;-75
2023/09/11 01:11:58;;;;;;;1999.90;999.90;;;23.10;99.90;;;;;;5012783;28;20195;-75
2023/09/11 01:14:25;;;;;;;1999.90;999.90;;;23.00;99.90;;;;;;5012505;28;20439;-75
2023/09/11 01:17:06;;;;;;;1999.90;999.90;;;22.90;99.90;;;;;;5012698;28;20580;-75
2023/09/11 01:20:08;;;;;;;1999.90;999.90;;;22.90;99.90;;;;;;5012759;28;20402;-75
2023/09/11 01:22:39;;;;;;;1999.90;999.90;;;22.80;99.90;;;;;;5012428;28;20505;-76
2023/09/11 01:25:47;;;;;;;1999.90;999.90;;;22.80;99.90;;;;;;5012435;28;20391;-75
2023/09/11 01:28:47;;;;;;;1999.90;999.90;;;22.60;99.90;;;;;;5012590;28;20377;-75
2023/09/11 01:31:13;;;;;;;1999.90;999.90;;;22.60;99.90;;;;;;5012250;28;20420;-75
2023/09/11 01:33:38;;;;;;;1999.90;999.90;;;22.50;99.90;;;;;;5012304;28;20431;-75
2023/09/11 01:36:04;;;;;;;1999.90;999.90;;;22.50;99.90;;;;;;5012563;28;20938;-75
2023/09/11 01:38:29;;;;;;;1999.90;999.90;;;22.50;99.90;;;;;;5012440;28;20653;-75
2023/09/11 01:40:58;;;;;;;1999.90;999.90;;;22.50;99.90;;;;;;5012371;28;20201;-75
2023/09/11 01:43:28;;;;;;;1999.90;999.90;;;22.60;99.90;;;;;;5012122;28;20200;-76
2023/09/11 01:45:54;;;;;;;1999.90;999.90;;;22.60;99.90;;;;;;5012205;28;20748;-75
2023/09/11 01:48:21;;;;;;;1999.90;999.90;;;22.50;99.90;;;;;;5012251;28;20374;-75
2023/09/11 01:50:48;;;;;;;1999.90;999.90;;;22.50;99.90;;;;;;5012210;28;20182;-75
2023/09/11 01:53:14;;;;;;;1999.90;999.90;;;22.50;99.90;;;;;;5011837;28;20414;-75
2023/09/11 01:55:41;;;;;;;1999.90;999.90;;;22.40;99.90;;;;;;5011508;28;20400;-75
2023/09/11 01:58:07;;;;;;;1999.90;999.90;;;22.40;99.90;;;;;;4992499;28;20467;-74
2023/09/11 02:00:32;;;;;;;1999.90;999.90;;;22.30;99.90;;;;;;4992352;28;20461;-73
2023/09/11 02:02:58;;;;;;;1999.90;999.90;;;22.20;99.90;;;;;;4992367;28;20552;-73
2023/09/11 02:05:23;;;;;;;1999.90;999.90;;;22.10;99.90;;;;;;4992485;28;20170;-72
2023/09/11 02:07:49;;;;;;;1999.90;999.90;;;22.10;99.90;;;;;;4992469;28;20178;-73
2023/09/11 02:10:17;;;;;;;1999.90;999.90;;;22.10;99.90;;;;;;4992485;28;20181;-72
2023/09/11 02:12:43;;;;;;;1999.90;999.90;;;22.10;99.90;;;;;;4992065;28;20394;-73
2023/09/11 02:15:08;;;;;;;1999.90;999.90;;;22.10;99.90;;;;;;4992291;28;20920;-73
2023/09/11 02:17:34;;;;;;;1999.90;999.90;;;22.10;99.90;;;;;;4992390;28;20173;-73
2023/09/11 02:19:59;;;;;;;1999.90;999.90;;;22.10;99.90;;;;;;4992276;28;20208;-73
2023/09/11 02:22:25;;;;;;;1999.90;999.90;;;22.10;99.90;;;;;;4992097;28;20247;-73
2023/09/11 02:24:50;;;;;;;1999.90;999.90;;;22.10;99.90;;;;;;4991693;28;20211;-73
2023/09/11 02:27:16;;;;;;;1999.90;999.90;;;22.10;99.90;;;;;;4991480;28;20181;-73
2023/09/11 02:29:42;;;;;;;1999.90;999.90;;;22.10;99.90;;;;;;4991284;28;20172;-73
2023/09/11 02:32:07;;;;;;;1999.90;999.90;;;22.00;99.90;;;;;;4991435;28;20588;-74
2023/09/11 02:34:33;;;;;;;1999.90;999.90;;;21.90;99.90;;;;;;4991101;28;20201;-72
2023/09/11 02:36:58;;;;;;;1999.90;999.90;;;21.90;99.90;;;;;;4991359;28;20235;-73
2023/09/11 02:39:24;;;;;;;1999.90;999.90;;;21.90;99.90;;;;;;4991302;28;20181;-72
2023/09/11 02:41:49;;;;;;;1999.90;999.90;;;21.80;99.90;;;;;;4991264;28;20251;-74
2023/09/11 02:44:15;;;;;;;1999.90;999.90;;;21.80;99.90;;;;;;4992827;28;20194;-73
2023/09/11 02:46:40;;;;;;;1999.90;999.90;;;21.80;99.90;;;;;;4994719;28;20173;-73
2023/09/11 02:49:09;;;;;;;1999.90;999.90;;;21.80;99.90;;;;;;4994657;28;20232;-73
2023/09/11 02:51:35;;;;;;;1999.90;999.90;;;21.80;99.90;;;;;;4994613;28;20178;-73
2023/09/11 02:54:00;;;;;;;1999.90;999.90;;;21.80;99.90;;;;;;4994224;28;20461;-73
2023/09/11 02:56:26;;;;;;;1999.90;999.90;;;21.80;99.90;;;;;;4994474;28;20281;-72
2023/09/11 02:58:52;;;;;;;1999.90;999.90;;;21.70;99.90;;;;;;4994672;28;20423;-73
2023/09/11 03:01:18;;;;;;;1999.90;999.90;;;21.60;99.90;;;;;;4994393;28;20206;-72
2023/09/11 03:03:43;;;;;;;1999.90;999.90;;;21.60;99.90;;;;;;4994034;28;20259;-72
2023/09/11 03:06:09;;;;;;;1999.90;999.90;;;21.60;99.90;;;;;;4994382;28;20422;-73
2023/09/11 03:08:34;;;;;;;1999.90;999.90;;;21.60;99.90;;;;;;4994323;28;20169;-73
2023/09/11 03:11:10;;;;;;;1999.90;999.90;;;21.50;99.90;;;;;;4994370;28;20169;-74
2023/09/11 03:13:36;;;;;;;1999.90;999.90;;;21.50;99.90;;;;;;4993909;28;20257;-73
2023/09/11 03:16:12;;;;;;;1999.90;999.90;;;21.50;99.90;;;;;;4994229;28;20434;-72
2023/09/11 03:18:38;;;;;;;1999.90;999.90;;;21.50;99.90;;;;;;4994162;28;20431;-71
2023/09/11 03:21:04;;;;;;;1999.90;999.90;;;21.50;99.90;;;;;;4994135;28;20463;-71
2023/09/11 03:23:30;;;;;;;1999.90;999.90;;;21.50;99.90;;;;;;4993771;28;20444;-72
2023/09/11 03:25:56;;;;;;;1999.90;999.90;;;21.40;99.90;;;;;;4956640;28;1118661;-71
2023/09/11 03:28:25;;;;;;;1999.90;999.90;;;21.30;99.90;;;;;;4995361;28;20629;-74
2023/09/11 03:30:51;;;;;;;1999.90;999.90;;;21.30;99.90;;;;;;4995172;28;20179;-74
2023/09/11 03:33:17;;;;;;;1999.90;999.90;;;21.20;99.90;;;;;;4994866;28;20443;-74
2023/09/11 03:35:45;;;;;;;1999.90;999.90;;;21.10;99.90;;;;;;4995079;28;20526;-74
2023/09/11 03:38:10;;;;;;;1999.90;999.90;;;21.10;99.90;;;;;;4994997;28;20185;-74
2023/09/11 03:40:36;;;;;;;1999.90;999.90;;;21.00;99.90;;;;;;4994910;28;20721;-74
2023/09/11 03:43:01;;;;;;;1999.90;999.90;;;21.00;99.90;;;;;;4994609;28;20235;-74
2023/09/11 03:45:27;;;;;;;1999.90;999.90;;;21.00;99.90;;;;;;4994845;28;20636;-74
2023/09/11 03:47:53;;;;;;;1999.90;999.90;;;21.00;99.90;;;;;;4994875;28;20169;-71
2023/09/11 03:50:19;;;;;;;1999.90;999.90;;;20.90;99.90;;;;;;4994739;28;20423;-72
2023/09/11 03:52:44;;;;;;;1999.90;999.90;;;20.90;99.90;;;;;;4994457;28;20233;-72
2023/09/11 03:55:10;;;;;;;1999.90;999.90;;;20.80;99.90;;;;;;4994601;28;20207;-72
2023/09/11 03:57:35;;;;;;;1999.90;999.90;;;20.70;99.90;;;;;;4994757;28;20649;-72
2023/09/11 04:00:01;;;;;;;1999.90;999.90;;;20.70;99.90;;;;;;4994549;28;20244;-72
2023/09/11 04:02:27;;;;;;;1999.90;999.90;;;20.70;99.90;;;;;;4994220;28;20248;-74
2023/09/11 04:04:52;;;;;;;1999.90;999.90;;;20.70;99.90;;;;;;4994442;28;20188;-72
2023/09/11 04:07:18;;;;;;;1999.90;999.90;;;20.70;99.90;;;;;;4994473;28;20172;-72
2023/09/11 04:09:44;;;;;;;1999.90;999.90;;;20.60;99.90;;;;;;4994431;28;20188;-72
2023/09/11 04:12:14;;;;;;;1999.90;999.90;;;20.60;99.90;;;;;;4994416;28;20180;-72
2023/09/11 04:14:39;;;;;;;1999.90;999.90;;;20.60;99.90;;;;;;4994211;28;20527;-72
2023/09/11 04:17:05;;;;;;;1999.90;999.90;;;20.60;99.90;;;;;;4994293;28;20447;-72
2023/09/11 04:19:30;;;;;;;1999.90;999.90;;;20.60;99.90;;;;;;4994227;28;20176;-71
2023/09/11 04:21:56;;;;;;;1999.90;999.90;;;20.60;99.90;;;;;;4994039;28;20279;-72
2023/09/11 04:24:22;;;;;;;1999.90;999.90;;;20.60;99.90;;;;;;4993590;28;20242;-72
2023/09/11 04:26:47;;;;;;;1999.90;999.90;;;20.60;99.90;;;;;;4994055;28;20235;-73
2023/09/11 04:29:13;;;;;;;1999.90;999.90;;;20.60;99.90;;;;;;4994234;28;20680;-71
2023/09/11 04:31:39;;;;;;;1999.90;999.90;;;20.60;99.90;;;;;;4993965;28;20188;-72
2023/09/11 04:34:04;;;;;;;1999.90;999.90;;;20.50;99.90;;;;;;4993731;28;20292;-71
2023/09/11 04:36:30;;;;;;;1999.90;999.90;;;20.50;99.90;;;;;;4993871;28;20181;-73
2023/09/11 04:38:56;;;;;;;1999.90;999.90;;;20.40;99.90;;;;;;4993999;28;20177;-74
2023/09/11 04:41:21;;;;;;;1999.90;999.90;;;20.40;99.90;;;;;;4993981;28;20218;-74
2023/09/11 04:43:47;;;;;;;1999.90;999.90;;;20.50;99.90;;;;;;4993856;28;20200;-74
2023/09/11 04:46:12;;;;;;;1999.90;999.90;;;20.40;99.90;;;;;;4993799;28;20175;-72
2023/09/11 04:48:38;;;;;;;1999.90;999.90;;;20.40;99.90;;;;;;4993675;28;20170;-72
2023/09/11 04:51:04;;;;;;;1999.90;999.90;;;20.40;99.90;;;;;;4993575;28;20178;-73
2023/09/11 04:53:29;;;;;;;1999.90;999.90;;;20.30;99.90;;;;;;4993192;28;20442;-73
2023/09/11 04:55:56;;;;;;;1999.90;999.90;;;20.20;99.90;;;;;;4993557;28;20258;-71
2023/09/11 04:58:22;;;;;;;1999.90;999.90;;;20.20;99.90;;;;;;4998056;28;20261;-73
2023/09/11 05:00:47;;;;;;;1999.90;999.90;;;20.20;99.90;;;;;;4994163;28;20517;-72
2023/09/11 05:03:13;;;;;;;1999.90;999.90;;;20.10;99.90;;;;;;5004844;28;20203;-72
2023/09/11 05:05:40;;;;;;;1999.90;999.90;;;20.10;99.90;;;;;;5001084;28;20179;-72
2023/09/11 05:08:07;;;;;;;1999.90;999.90;;;20.10;99.90;;;;;;5012615;28;20295;-72
2023/09/11 05:10:33;;;;;;;1999.90;999.90;;;20.10;99.90;;;;;;5012809;28;20466;-71
2023/09/11 05:12:59;;;;;;;1999.90;999.90;;;20.00;99.90;;;;;;5009977;28;20443;-71
2023/09/11 05:15:25;;;;;;;1999.90;999.90;;;19.90;99.90;;;;;;5004489;28;20499;-72
2023/09/11 05:17:51;;;;;;;1999.90;999.90;;;20.00;99.90;;;;;;5012782;28;20605;-73
2023/09/11 05:20:16;;;;;;;1999.90;999.90;;;20.00;99.90;;;;;;5012679;28;20193;-73
2023/09/11 05:22:42;;;;;;;1999.90;999.90;;;20.00;99.90;;;;;;5012282;28;20936;-72
2023/09/11 05:25:08;;;;;;;1999.90;999.90;;;20.10;99.90;;;;;;5012491;28;20185;-72
2023/09/11 05:27:34;;;;;;;1999.90;999.90;;;20.20;99.90;;;;;;5009634;28;20269;-72
2023/09/11 05:29:59;;;;;;;1999.90;999.90;;;20.20;99.90;;;;;;5004389;28;20610;-71
2023/09/11 05:32:25;;;;;;;1999.90;999.90;;;20.20;99.90;;;;;;5012225;28;20218;-71
2023/09/11 05:34:52;;;;;;;1999.90;999.90;;;20.30;99.90;;;;;;5012382;28;20191;-72
2023/09/11 05:37:18;;;;;;;1999.90;999.90;;;20.30;99.90;;;;;;5012474;28;20538;-72
2023/09/11 05:39:44;;;;;;;1999.90;999.90;;;20.30;99.90;;;;;;5012347;28;20407;-71
2023/09/11 05:42:10;;;;;;;1999.90;999.90;;;20.30;99.90;;;;;;5012218;28;20293;-71
2023/09/11 05:44:36;;;;;;;1999.90;999.90;;;20.40;99.90;;;;;;5000342;28;20692;-74
2023/09/11 05:47:02;;;;;;;1999.90;999.90;;;20.40;99.90;;;;;;5004854;28;20497;-74
2023/09/11 05:49:28;;;;;;;1999.90;999.90;;;20.50;99.90;;;;;;5014409;28;20183;-74
2023/09/11 05:51:55;;;;;;;1999.90;999.90;;;20.50;99.90;;;;;;5013424;28;20410;-74
2023/09/11 05:54:20;;;;;;;1999.90;999.90;;;20.60;99.90;;;;;;5013192;28;20457;-74
2023/09/11 05:56:46;;;;;;;1999.90;999.90;;;20.60;99.90;;;;;;5012528;28;20449;-72
2023/09/11 05:59:12;;;;;;;1999.90;999.90;;;20.70;99.90;;;;;;5012255;28;20172;-72
2023/09/11 06:01:37;;;;;;;1999.90;999.90;;;20.70;99.90;;;;;;5012103;28;20218;-73
2023/09/11 06:04:03;;;;;;;1999.90;999.90;;;20.80;99.90;;;;;;5011827;28;20199;-72
2023/09/11 06:06:30;;;;;;;1999.90;999.90;;;20.90;99.90;;;;;;5012097;28;20176;-74
2023/09/11 06:08:57;;;;;;;1999.90;999.90;;;21.00;99.90;;;;;;5012231;28;20214;-75
2023/09/11 06:11:23;;;;;;;1999.90;999.90;;;21.00;99.90;;;;;;5012136;28;20410;-75
2023/09/11 06:13:49;;;;;;;1999.90;999.90;;;21.10;99.90;;;;;;5012967;28;21001;-74
2023/09/11 06:16:14;;;;;;;1999.90;999.90;;;21.20;99.90;;;;;;5013685;28;20552;-74
2023/09/11 06:18:40;;;;;;;1999.90;999.90;;;21.30;99.90;;;;;;5014603;28;20592;-73
2023/09/11 06:21:06;;;;;;;1999.90;999.90;;;21.30;99.90;;;;;;5017695;28;20273;-73
2023/09/11 06:23:31;;;;;;;1999.90;999.90;;;21.40;99.90;;;;;;5017214;28;20184;-74
2023/09/11 06:25:57;;;;;;;1999.90;999.90;;;21.50;99.90;;;;;;5016760;28;20187;-75
2023/09/11 06:28:22;;;;;;;1999.90;999.90;;;21.60;99.90;;;;;;5017059;28;20191;-74
2023/09/11 06:30:48;;;;;;;1999.90;999.90;;;21.60;99.90;;;;;;5016553;28;20537;-74
2023/09/11 06:33:14;;;;;;;1999.90;999.90;;;21.70;99.90;;;;;;5016180;28;20250;-74
2023/09/11 06:35:39;;;;;;;1999.90;999.90;;;21.80;99.90;;;;;;5015907;28;20168;-72
2023/09/11 06:38:05;;;;;;;1999.90;999.90;;;21.90;99.90;;;;;;5015721;28;20180;-73
2023/09/11 06:40:30;;;;;;;1999.90;999.90;;;22.00;99.90;;;;;;5015510;28;20563;-73
2023/09/11 06:42:57;;;;;;;1999.90;999.90;;;22.00;99.90;;;;;;5015272;28;20251;-73
2023/09/11 06:45:22;;;;;;;1999.90;999.90;;;22.00;99.90;;;;;;5015574;28;20165;-72
2023/09/11 06:47:48;;;;;;;1999.90;999.90;;;22.10;99.90;;;;;;5015473;28;20461;-72
2023/09/11 06:50:14;;;;;;;1999.90;999.90;;;22.10;99.90;;;;;;5015462;28;20165;-72
2023/09/11 06:52:40;;;;;;;1999.90;999.90;;;22.20;99.90;;;;;;5003559;28;20181;-72
2023/09/11 06:55:10;;;;;;;1999.90;999.90;;;22.30;99.90;;;;;;5005767;28;20418;-72
2023/09/11 06:57:40;;;;;;;1999.90;999.90;;;22.40;99.90;;;;;;5015348;28;20384;-72
2023/09/11 07:00:10;;;;;;;1999.90;999.90;;;22.40;99.90;;;;;;5006242;28;20411;-72
2023/09/11 07:02:37;;;;;;;1999.90;999.90;;;22.50;99.90;;;;;;5009920;28;20412;-74
2023/09/11 07:05:04;;;;;;;1999.90;999.90;;;22.60;99.90;;;;;;5014677;28;20449;-72
2023/09/11 07:07:30;;;;;;;1999.90;999.90;;;22.70;99.90;;;;;;5001873;28;20402;-72
2023/09/11 07:09:56;;;;;;;1999.90;999.90;;;22.80;99.90;;;;;;5004538;28;20868;-72
2023/09/11 07:12:22;;;;;;;1999.90;999.90;;;22.90;99.90;;;;;;5009748;28;20412;-74
2023/09/11 07:14:47;;;;;;;1999.90;999.90;;;22.90;99.90;;;;;;5005832;28;20242;-72
2023/09/11 07:17:13;;;;;;;1999.90;999.90;;;23.00;99.90;;;;;;5006732;28;20850;-72
2023/09/11 07:19:40;;;;;;;1999.90;999.90;;;23.00;99.90;;;;;;5016015;28;20161;-74
2023/09/11 07:22:05;;;;;;;1999.90;999.90;;;23.10;99.90;;;;;;5015022;28;20205;-72
2023/09/11 07:24:31;;;;;;;1999.90;999.90;;;23.20;99.90;;;;;;5000239;28;20461;-72
2023/09/11 07:26:57;;;;;;;1999.90;999.90;;;23.30;99.90;;;;;;5012544;28;20197;-72
2023/09/11 07:29:26;;;;;;;1999.90;999.90;;;23.40;99.90;;;;;;5014359;28;20193;-72
2023/09/11 07:31:52;;;;;;;1999.90;999.90;;;23.40;99.90;;;;;;5014887;28;20259;-72
2023/09/11 07:34:18;;;;;;;1999.90;999.90;;;23.50;99.90;;;;;;5014550;28;20435;-75
2023/09/11 07:36:43;;;;;;;1999.90;999.90;;;23.60;99.90;;;;;;5007057;28;20388;-75
2023/09/11 07:39:09;;;;;;;1999.90;999.90;;;23.70;99.90;;;;;;5013839;28;20208;-75
2023/09/11 07:41:35;;;;;;;1999.90;999.90;;;23.80;99.90;;;;;;5014513;28;20196;-74
2023/09/11 07:44:00;;;;;;;1999.90;999.90;;;23.90;99.90;;;;;;5014154;28;20185;-76
2023/09/11 07:46:28;;;;;;;1999.90;999.90;;;23.90;99.90;;;;;;5014431;28;20378;-75
2023/09/11 07:48:54;;;;;;;1999.90;999.90;;;24.00;99.90;;;;;;5014543;28;20204;-72
2023/09/11 07:51:20;;;;;;;1999.90;999.90;;;24.10;99.90;;;;;;5006509;28;20387;-72
2023/09/11 07:53:45;;;;;;;1999.90;999.90;;;24.20;99.90;;;;;;4998274;28;20672;-72
2023/09/11 07:56:12;;;;;;;1999.90;999.90;;;24.20;99.90;;;;;;4994647;28;20387;-73
2023/09/11 07:58:38;;;;;;;1999.90;999.90;;;24.30;99.90;;;;;;4994614;28;20417;-72
2023/09/11 08:01:04;;;;;;;1999.90;999.90;;;24.40;99.90;;;;;;4994429;28;20434;-72
2023/09/11 08:03:34;;;;;;;1999.90;999.90;;;24.50;99.90;;;;;;4994753;28;20609;-74
2023/09/11 08:06:00;;;;;;;1999.90;999.90;;;24.60;99.90;;;;;;4996013;28;20372;-74
2023/09/11 08:08:26;;;;;;;1999.90;999.90;;;24.70;99.90;;;;;;4997435;28;20490;-73
2023/09/11 08:10:52;;;;;;;1999.90;999.90;;;24.80;99.90;;;;;;4997697;28;20258;-75
2023/09/11 08:13:18;;;;;;;1999.90;999.90;;;24.90;99.90;;;;;;5008439;28;20509;-75
2023/09/11 08:15:44;;;;;;;1999.90;999.90;;;25.00;99.90;;;;;;5015604;28;20168;-73
2023/09/11 08:18:10;;;;;;;1999.90;999.90;;;25.00;99.90;;;;;;5013930;28;20640;-74
2023/09/11 08:20:36;;;;;;;1999.90;999.90;;;25.10;99.90;;;;;;5014506;28;20511;-73
2023/09/11 08:23:02;;;;;;;1999.90;999.90;;;25.10;99.90;;;;;;5014393;28;20564;-74
2023/09/11 08:25:27;;;;;;;1999.90;999.90;;;25.10;99.90;;;;;;5014452;28;20424;-75
2023/09/11 08:27:53;;;;;;;1999.90;999.90;;;25.30;99.90;;;;;;5014166;28;20197;-75
2023/09/11 08:30:19;;;;;;;1999.90;999.90;;;25.40;99.90;;;;;;5014223;28;20177;-75
2023/09/11 08:32:45;;;;;;;1999.90;999.90;;;25.50;99.90;;;;;;5013593;28;20608;-74
2023/09/11 08:35:10;;;;;;;1999.90;999.90;;;25.50;99.90;;;;;;5013728;28;20181;-75
2023/09/11 08:37:36;;;;;;;1999.90;999.90;;;25.60;99.90;;;;;;5013462;28;20741;-72
2023/09/11 08:40:02;;;;;;;1999.90;999.90;;;25.70;99.90;;;;;;5013349;28;20176;-74
2023/09/11 08:42:27;;;;;;;1999.90;999.90;;;25.80;99.90;;;;;;5012336;28;20175;-72
2023/09/11 08:44:53;;;;;;;1999.90;999.90;;;25.90;99.90;;;;;;5013336;28;20539;-72
2023/09/11 08:47:22;;;;;;;1999.90;999.90;;;26.00;99.90;;;;;;5013337;28;20169;-72
2023/09/11 08:49:54;;;;;;;1999.90;999.90;;;26.10;99.90;;;;;;5013272;28;20272;-74
2023/09/11 08:52:19;;;;;;;1999.90;999.90;;;26.20;99.90;;;;;;5012899;28;20777;-73
2023/09/11 08:54:51;;;;;;;1999.90;999.90;;;26.30;99.90;;;;;;5013073;28;20435;-73
2023/09/11 08:57:21;;;;;;;1999.90;999.90;;;26.40;99.90;;;;;;5013924;28;20165;-74
2023/09/11 08:59:49;;;;;;;1999.90;999.90;;;26.50;99.90;;;;;;5010857;28;20447;-74
2023/09/11 09:02:17;;;;;;;1999.90;999.90;;;26.70;99.90;;;;;;4991763;28;20537;-72
2023/09/11 09:04:44;;;;;;;1999.90;999.90;;;26.80;99.90;;;;;;4995156;28;20444;-74
2023/09/11 09:07:10;;;;;;;1999.90;999.90;;;27.00;99.90;;;;;;4998735;28;20467;-74
2023/09/11 09:09:36;;;;;;;1999.90;999.90;;;27.10;99.90;;;;;;4995648;28;20755;-74
2023/09/11 09:12:04;;;;;;;1999.90;999.90;;;27.30;99.90;;;;;;4996693;28;20517;-74
2023/09/11 09:14:31;;;;;;;1999.90;999.90;;;27.40;99.90;;;;;;4996205;28;20432;-73
2023/09/11 09:16:57;;;;;;;1999.90;999.90;;;27.40;99.90;;;;;;5005013;28;20422;-74
2023/09/11 09:19:22;;;;;;;1999.90;999.90;;;27.50;99.30;;;;;;5009140;28;20420;-74
2023/09/11 09:22:04;;;;;;;1999.90;999.90;;;27.50;98.20;;;;;;5008086;28;21021;-73
2023/09/11 09:24:33;;;;;;;1999.90;999.90;;;27.60;97.20;;;;;;5003800;28;20605;-73
2023/09/11 09:27:04;;;;;;;1999.90;999.90;;;27.50;93.90;;;;;;4999709;28;20408;-73
2023/09/11 09:29:36;;;;;;;1999.90;999.90;;;27.70;94.00;;;;;;5008123;28;20482;-73
2023/09/11 09:32:04;;;;;;;1999.90;999.90;;;27.80;93.00;;;;;;5008356;28;20916;-71
2023/09/11 09:34:32;;;;;;;1999.90;999.90;;;27.80;93.30;;;;;;5008439;28;20417;-73
2023/09/11 09:36:58;;;;;;;1999.90;999.90;;;27.90;93.20;;;;;;5007888;28;20927;-74
2023/09/11 09:39:28;;;;;;;1999.90;999.90;;;28.00;93.40;;;;;;5008056;28;20416;-74
2023/09/11 09:41:55;;;;;;;1999.90;999.90;;;28.00;92.50;;;;;;5008548;28;20459;-74
2023/09/11 09:44:36;;;;;;;1999.90;999.90;;;28.10;92.10;;;;;;5007632;28;20999;-75
2023/09/11 09:47:06;;;;;;;1999.90;999.90;;;28.20;92.00;;;;;;5008218;28;20899;-74
2023/09/11 09:49:54;;;;;;;1999.90;999.90;;;28.30;91.40;;;;;;5007819;28;20503;-74
2023/09/11 09:52:29;;;;;;;1999.90;999.90;;;28.40;91.00;;;;;;5008126;28;20954;-74
2023/09/11 09:54:57;;;;;;;1999.90;999.90;;;28.60;89.90;;;;;;5006380;28;20823;-75
2023/09/11 09:57:25;;;;;;;1999.90;999.90;;;28.60;90.80;;;;;;4992138;28;20408;-74
2023/09/11 09:59:54;;;;;;;1999.90;999.90;;;28.60;90.00;;;;;;5007605;28;20508;-75
2023/09/11 10:02:28;;;;;;;1999.90;999.90;;;28.80;84.80;;;;;;5007326;28;20877;-72
2023/09/11 10:04:56;;;;;;;1999.90;999.90;;;28.80;91.10;;;;;;5007710;28;20493;-72
2023/09/11 10:07:37;;;;;;;1999.90;999.90;;;28.90;91.40;;;;;;5008259;28;20803;-75
2023/09/11 10:10:30;;;;;;;1999.90;999.90;;;28.90;90.40;;;;;;5008284;28;20941;-75
2023/09/11 10:13:07;;;;;;;1999.90;999.90;;;28.90;88.60;;;;;;5005261;28;20427;-74
2023/09/11 10:15:35;;;;;;;1999.90;999.90;;;29.00;89.80;;;;;;5007572;28;20466;-75
2023/09/11 10:18:02;;;;;;;1999.90;999.90;;;29.00;89.90;;;;;;5007440;28;20478;-73
2023/09/11 10:20:28;;;;;;;1999.90;999.90;;;29.10;90.60;;;;;;5008145;28;20885;-74
2023/09/11 10:22:56;;;;;;;1999.90;999.90;;;29.20;89.50;;;;;;5006887;28;20415;-74
2023/09/11 10:25:22;;;;;;;1999.90;999.90;;;29.30;87.90;;;;;;5007125;28;20435;-75
2023/09/11 10:28:03;;;;;;;1999.90;999.90;;;29.30;86.50;;;;;;5008057;28;20420;-74
2023/09/11 10:30:48;;;;;;;1999.90;999.90;;;29.50;83.50;;;;;;5007676;28;20775;-73
2023/09/11 10:33:20;;;;;;;1999.90;999.90;;;29.50;82.20;;;;;;5005709;28;20499;-75
2023/09/11 10:35:47;;;;;;;1999.90;999.90;;;29.50;87.90;;;;;;5007298;28;20404;-75
2023/09/11 10:38:14;;;;;;;1999.90;999.90;;;29.70;84.50;;;;;;5008058;28;20818;-74
2023/09/11 10:40:42;;;;;;;1999.90;999.90;;;29.70;80.70;;;;;;5007804;28;21187;-75
2023/09/11 10:43:08;;;;;;;1999.90;999.90;;;29.90;81.20;;;;;;5006618;28;20809;-75
2023/09/11 10:45:34;;;;;;;1999.90;999.90;;;30.00;78.90;;;;;;5007325;28;20842;-74
2023/09/11 10:48:01;;;;;;;1999.90;999.90;;;30.20;74.80;;;;;;5007846;28;21246;-74
2023/09/11 10:50:48;;;;;;;1999.90;999.90;;;30.30;74.60;;;;;;5007170;28;20979;-74
2023/09/11 10:53:14;;;;;;;1999.90;999.90;;;30.40;74.90;;;;;;5007536;28;20939;-75
2023/09/11 10:55:39;;;;;;;1999.90;999.90;;;30.50;68.00;;;;;;5003679;28;20502;-75
2023/09/11 10:58:07;;;;;;;1999.90;999.90;;;30.60;68.30;;;;;;4998121;28;20230;-73
2023/09/11 11:00:39;;;;;;;1999.90;999.90;;;30.70;65.90;;;;;;5001823;28;20978;-76
2023/09/11 11:03:05;;;;;;;1999.90;999.90;;;30.80;65.00;;;;;;5007103;28;20932;-76
2023/09/11 11:05:36;;;;;;;1999.90;999.90;;;30.80;61.20;;;;;;5010259;28;20432;-76
2023/09/11 11:08:02;;;;;;;1999.90;999.90;;;31.00;65.60;;;;;;5011014;28;20919;-75
2023/09/11 11:10:28;;;;;;;1999.90;999.90;;;31.30;63.50;;;;;;5011575;28;20422;-76
2023/09/11 11:13:08;;;;;;;1999.90;999.90;;;31.40;59.50;;;;;;5010807;28;20415;-76
2023/09/11 11:15:34;;;;;;;1999.90;999.90;;;31.50;58.50;;;;;;5011795;28;20255;-75
2023/09/11 11:18:25;;;;;;;1999.90;999.90;;;31.60;56.70;;;;;;5011524;28;20422;-75
2023/09/11 11:21:11;;;;;;;1999.90;999.90;;;31.50;53.70;;;;;;5011450;28;20480;-75
2023/09/11 11:24:00;;;;;;;1999.90;999.90;;;31.60;54.70;;;;;;5010788;28;20452;-73
2023/09/11 11:26:26;;;;;;;1999.90;999.90;;;31.70;55.30;;;;;;5010355;28;20435;-75
2023/09/11 11:28:52;;;;;;;1999.90;999.90;;;31.60;50.10;;;;;;5010620;28;20411;-74
2023/09/11 11:31:20;;;;;;;1999.90;999.90;;;31.60;50.30;;;;;;5011317;28;20404;-76
2023/09/11 11:33:50;;;;;;;1999.90;999.90;;;31.80;47.50;;;;;;5010611;28;20518;-76
2023/09/11 11:36:17;;;;;;;1999.90;999.90;;;32.00;51.40;;;;;;5010456;28;20478;-75
2023/09/11 11:38:43;;;;;;;1999.90;999.90;;;32.20;41.30;;;;;;5010841;28;20882;-72
2023/09/11 11:41:10;;;;;;;1999.90;999.90;;;32.50;43.60;;;;;;5012320;28;20467;-76
2023/09/11 11:43:36;;;;;;;1999.90;999.90;;;32.90;38.20;;;;;;5016278;28;20428;-77
2023/09/11 11:46:06;;;;;;;1999.90;999.90;;;33.30;36.80;;;;;;5013656;28;20427;-75
2023/09/11 11:48:32;;;;;;;1999.90;999.90;;;33.70;35.40;;;;;;5011282;28;20172;-74
2023/09/11 11:50:58;;;;;;;1999.90;999.90;;;34.10;33.30;;;;;;5010076;28;20419;-74
2023/09/11 11:53:24;;;;;;;1999.90;999.90;;;34.80;27.60;;;;;;5009713;28;20435;-74
2023/09/11 11:55:54;;;;;;;1999.90;999.90;;;35.50;22.80;;;;;;5010840;28;20583;-74
2023/09/11 11:58:19;;;;;;;1999.90;999.90;;;36.20;20.30;;;;;;5010084;28;20474;-74
2023/09/11 12:01:05;;;;;;;1999.90;999.90;;;36.40;19.10;;;;;;5010005;28;20455;-74